Time;durP1;ratioP1;P1;durP2;ratioP2;P2;SDS_P1;SDS_P2;PMS_P1;PMS_P2;Temp;Humidity;BMP_temperature;BMP_pressure;BME280_temperature;BME280_humidity;BME280_pressure;Samples;Min_cycle;Max_cycle;Signal;HPM_P1;HPM_P2
2024/01/09 00:01:43;;;;;;;7.05;2.63;;;-1.50;99.90;;;;;;5056239;28;20105;-88
2024/01/09 00:04:12;;;;;;;6.50;2.22;;;-1.50;99.90;;;;;;5076162;28;20041;-88
2024/01/09 00:06:38;;;;;;;6.22;2.40;;;-1.60;99.90;;;;;;5056018;28;20039;-88
2024/01/09 00:09:04;;;;;;;7.25;2.05;;;-1.60;99.90;;;;;;5054755;28;20029;-88
2024/01/09 00:11:29;;;;;;;5.00;1.60;;;-1.60;99.90;;;;;;5067408;28;20112;-88
2024/01/09 00:13:55;;;;;;;5.22;2.08;;;-1.60;99.90;;;;;;5093612;28;20047;-87
2024/01/09 00:16:22;;;;;;;5.90;2.58;;;-1.60;99.90;;;;;;5075297;28;20063;-88
2024/01/09 00:18:53;;;;;;;6.95;1.83;;;-1.70;99.90;;;;;;5075669;28;20060;-88
2024/01/09 00:21:19;;;;;;;6.25;2.17;;;-1.70;99.90;;;;;;5093979;28;20040;-89
2024/01/09 00:23:45;;;;;;;5.82;2.15;;;-1.70;99.90;;;;;;5092163;28;20047;-89
2024/01/09 00:26:10;;;;;;;6.53;2.50;;;-1.70;99.90;;;;;;5092539;28;20380;-89
2024/01/09 00:28:36;;;;;;;3.50;1.50;;;-1.70;99.90;;;;;;5101340;28;20418;-88
2024/01/09 00:31:02;;;;;;;5.85;2.35;;;-1.70;99.90;;;;;;5085712;28;20138;-88
2024/01/09 00:33:27;;;;;;;5.07;2.17;;;-1.80;99.90;;;;;;5084308;28;20526;-88
2024/01/09 00:35:53;;;;;;;6.38;2.25;;;-1.80;99.90;;;;;;5077960;28;20044;-88
2024/01/09 00:38:18;;;;;;;5.50;1.90;;;-1.80;99.90;;;;;;5093678;28;20472;-89
2024/01/09 00:40:45;;;;;;;5.22;1.80;;;-1.80;99.90;;;;;;5048815;28;20044;-87
2024/01/09 00:43:11;;;;;;;5.95;2.10;;;-1.80;99.90;;;;;;5074874;28;20060;-87
2024/01/09 00:45:37;;;;;;;7.22;2.20;;;-1.90;99.90;;;;;;5105156;28;20055;-87
2024/01/09 00:48:03;;;;;;;6.10;2.25;;;-1.90;99.90;;;;;;5099256;28;20120;-87
2024/01/09 00:50:28;;;;;;;5.22;1.70;;;-1.90;99.90;;;;;;5074875;28;20415;-88
2024/01/09 00:52:54;;;;;;;5.45;2.20;;;-1.90;99.90;;;;;;5092864;28;20040;-88
2024/01/09 00:55:19;;;;;;;8.05;2.33;;;-1.90;99.90;;;;;;5092814;28;20592;-89
2024/01/09 00:57:45;;;;;;;6.75;1.98;;;-2.00;99.90;;;;;;5091995;28;20115;-87
2024/01/09 01:00:11;;;;;;;3.55;1.38;;;-2.00;99.90;;;;;;5074750;28;20036;-87
2024/01/09 01:02:37;;;;;;;9.80;2.38;;;-2.00;99.90;;;;;;5083473;28;20045;-86
2024/01/09 01:05:03;;;;;;;8.50;2.75;;;-2.00;99.90;;;;;;5074471;28;20499;-86
2024/01/09 01:07:28;;;;;;;6.63;2.85;;;-2.00;99.90;;;;;;5073512;28;20044;-88
2024/01/09 01:09:54;;;;;;;7.25;2.00;;;-2.00;99.90;;;;;;5059476;28;20527;-88
2024/01/09 01:12:19;;;;;;;8.00;2.55;;;-2.00;99.90;;;;;;5091225;28;20035;-88
2024/01/09 01:14:45;;;;;;;6.13;2.03;;;-2.00;99.90;;;;;;5073042;28;20630;-88
2024/01/09 01:17:10;;;;;;;7.13;2.10;;;-2.10;99.90;;;;;;5074391;28;20028;-89
2024/01/09 01:19:36;;;;;;;4.28;1.67;;;-2.10;99.90;;;;;;5091630;28;20040;-88
2024/01/09 01:22:01;;;;;;;6.50;2.08;;;-2.10;99.90;;;;;;5074197;28;20093;-89
2024/01/09 01:24:27;;;;;;;10.07;2.42;;;-2.10;99.90;;;;;;5090745;28;20399;-87
2024/01/09 01:26:53;;;;;;;5.30;2.05;;;-2.10;99.90;;;;;;5091450;28;20032;-88
2024/01/09 01:29:18;;;;;;;5.57;2.08;;;-2.10;99.90;;;;;;5074039;28;20407;-88
2024/01/09 01:31:45;;;;;;;4.63;1.65;;;-2.10;99.90;;;;;;5091302;28;20044;-88
2024/01/09 01:34:11;;;;;;;3.40;1.35;;;-2.20;99.90;;;;;;5074264;28;20044;-88
2024/01/09 01:36:36;;;;;;;4.78;1.73;;;-2.20;99.90;;;;;;5091151;28;20046;-89
2024/01/09 01:39:02;;;;;;;9.07;2.80;;;-2.20;99.90;;;;;;5082694;28;20028;-88
2024/01/09 01:41:28;;;;;;;5.38;1.75;;;-2.20;99.90;;;;;;5092180;28;20388;-88
2024/01/09 01:43:54;;;;;;;6.50;2.03;;;-2.20;99.90;;;;;;5073165;28;20443;-88
2024/01/09 01:46:20;;;;;;;7.35;1.98;;;-2.30;99.90;;;;;;5074187;28;20032;-88
2024/01/09 01:48:46;;;;;;;7.65;2.55;;;-2.20;99.90;;;;;;5091194;28;20035;-88
2024/01/09 01:51:12;;;;;;;6.90;2.40;;;-2.30;99.90;;;;;;5090684;28;20179;-88
2024/01/09 01:53:37;;;;;;;8.55;2.67;;;-2.30;99.90;;;;;;5071174;28;20041;-88
2024/01/09 01:56:04;;;;;;;6.15;2.20;;;-2.30;99.90;;;;;;5053504;28;20041;-88
2024/01/09 01:58:32;;;;;;;9.30;2.75;;;-2.30;99.90;;;;;;5069557;28;20523;-89
2024/01/09 02:01:01;;;;;;;6.45;2.10;;;-2.40;99.90;;;;;;5084054;28;20040;-88
2024/01/09 02:03:27;;;;;;;7.78;2.05;;;-2.40;99.90;;;;;;5073341;28;20051;-89
2024/01/09 02:05:55;;;;;;;6.28;1.88;;;-2.40;99.90;;;;;;5092042;28;20084;-88
2024/01/09 02:08:23;;;;;;;5.55;2.00;;;-2.40;99.90;;;;;;5090367;28;20032;-88
2024/01/09 02:10:48;;;;;;;3.85;1.30;;;-2.40;99.90;;;;;;5090461;28;20048;-88
2024/01/09 02:13:14;;;;;;;7.70;1.65;;;-2.40;99.90;;;;;;5073667;28;20523;-88
2024/01/09 02:15:40;;;;;;;6.38;2.00;;;-2.40;99.90;;;;;;5073219;28;20507;-88
2024/01/09 02:18:05;;;;;;;5.82;2.22;;;-2.40;99.90;;;;;;5090568;28;20542;-89
2024/01/09 02:20:31;;;;;;;7.30;1.92;;;-2.50;99.90;;;;;;5073637;28;20036;-88
2024/01/09 02:22:56;;;;;;;7.65;1.90;;;-2.40;99.90;;;;;;5089216;28;20063;-88
2024/01/09 02:25:22;;;;;;;7.45;2.47;;;-2.50;99.90;;;;;;5072476;28;20044;-88
2024/01/09 02:28:10;;;;;;;5.68;1.73;;;-2.50;99.90;;;;;;5072249;28;20050;-87
2024/01/09 02:30:37;;;;;;;5.85;1.75;;;-2.50;99.90;;;;;;5088263;28;20054;-88
2024/01/09 02:33:03;;;;;;;5.63;1.95;;;-2.50;99.90;;;;;;5074911;28;20036;-88
2024/01/09 02:35:29;;;;;;;5.50;1.95;;;-2.50;99.90;;;;;;5072089;28;20124;-88
2024/01/09 02:37:55;;;;;;;3.38;1.88;;;-2.50;99.90;;;;;;5073552;28;20122;-87
2024/01/09 02:40:22;;;;;;;3.70;1.48;;;-2.50;99.90;;;;;;5073353;28;20074;-87
2024/01/09 02:42:48;;;;;;;6.55;2.13;;;-2.50;99.90;;;;;;5090350;28;20075;-89
2024/01/09 02:45:13;;;;;;;4.18;1.70;;;-2.60;99.90;;;;;;5090042;28;20067;-88
2024/01/09 02:47:39;;;;;;;4.00;1.58;;;-2.60;99.90;;;;;;5073251;28;20051;-88
2024/01/09 02:50:05;;;;;;;6.18;1.60;;;-2.60;99.90;;;;;;5090085;28;20078;-87
2024/01/09 02:52:31;;;;;;;6.10;2.17;;;-2.60;99.90;;;;;;5080492;28;20507;-89
2024/01/09 02:54:56;;;;;;;4.68;1.38;;;-2.60;99.90;;;;;;5052890;28;20148;-89
2024/01/09 02:57:22;;;;;;;8.68;2.20;;;-2.70;99.90;;;;;;5053248;28;20045;-88
2024/01/09 02:59:47;;;;;;;5.95;2.05;;;-2.70;99.90;;;;;;5069818;28;20039;-88
2024/01/09 03:02:13;;;;;;;3.00;1.38;;;-2.70;99.90;;;;;;5085775;28;20523;-88
2024/01/09 03:04:38;;;;;;;6.47;2.28;;;-2.70;99.90;;;;;;5073098;28;20052;-88
2024/01/09 03:07:04;;;;;;;4.45;1.70;;;-2.70;99.90;;;;;;5089869;28;20051;-87
2024/01/09 03:09:31;;;;;;;5.82;1.85;;;-2.70;99.90;;;;;;5093429;28;20743;-88
2024/01/09 03:11:57;;;;;;;5.35;1.75;;;-2.80;99.90;;;;;;5077233;28;20040;-88
2024/01/09 03:14:23;;;;;;;5.25;1.98;;;-2.80;99.90;;;;;;5093514;28;20518;-88
2024/01/09 03:16:48;;;;;;;3.92;1.50;;;-2.80;99.90;;;;;;5093130;28;20086;-88
2024/01/09 03:19:15;;;;;;;4.32;2.03;;;-2.80;99.90;;;;;;5061148;28;20037;-88
2024/01/09 03:21:40;;;;;;;6.05;1.52;;;-2.80;99.90;;;;;;5076157;28;20047;-88
2024/01/09 03:24:06;;;;;;;6.97;2.83;;;-2.80;99.90;;;;;;5077091;28;20043;-87
2024/01/09 03:26:31;;;;;;;11.70;2.15;;;-2.80;99.90;;;;;;5076542;28;20418;-87
2024/01/09 03:28:58;;;;;;;6.55;2.60;;;-2.80;99.90;;;;;;5079579;28;20071;-87
2024/01/09 03:31:24;;;;;;;5.97;2.25;;;-2.90;99.90;;;;;;5083548;28;20045;-87
2024/01/09 03:33:50;;;;;;;6.38;2.22;;;-2.90;99.90;;;;;;5085683;28;20086;-87
2024/01/09 03:36:17;;;;;;;6.75;2.15;;;-2.90;99.90;;;;;;5060411;28;20040;-87
2024/01/09 03:38:43;;;;;;;6.05;2.22;;;-2.90;99.90;;;;;;5076356;28;20081;-87
2024/01/09 03:41:09;;;;;;;7.75;2.70;;;-2.90;99.90;;;;;;5076051;28;20071;-87
2024/01/09 03:43:34;;;;;;;5.10;1.75;;;-3.00;99.90;;;;;;5094281;28;20074;-87
2024/01/09 03:46:00;;;;;;;5.78;1.80;;;-3.00;99.90;;;;;;5076252;28;20051;-88
2024/01/09 03:48:25;;;;;;;2.70;1.30;;;-3.00;99.90;;;;;;5093216;28;20036;-87
2024/01/09 03:50:51;;;;;;;7.20;2.25;;;-3.00;99.90;;;;;;5075953;28;20548;-88
2024/01/09 03:53:17;;;;;;;4.10;1.48;;;-3.00;99.90;;;;;;5094434;28;20403;-87
2024/01/09 03:55:42;;;;;;;3.88;2.00;;;-3.10;99.90;;;;;;5092625;28;20044;-87
2024/01/09 03:58:09;;;;;;;4.15;1.70;;;-3.10;99.90;;;;;;5094197;28;20106;-87
2024/01/09 04:00:34;;;;;;;4.65;1.40;;;-3.10;99.90;;;;;;5092943;28;20032;-87
2024/01/09 04:03:01;;;;;;;3.70;1.35;;;-3.10;99.90;;;;;;5076257;28;20066;-88
2024/01/09 04:05:26;;;;;;;6.53;2.22;;;-3.10;99.90;;;;;;5075564;28;20042;-87
2024/01/09 04:07:52;;;;;;;8.02;2.33;;;-3.10;99.90;;;;;;5076103;28;20040;-87
2024/01/09 04:10:18;;;;;;;5.03;2.10;;;-3.10;99.90;;;;;;5092875;28;20040;-87
2024/01/09 04:12:43;;;;;;;6.30;2.28;;;-3.10;99.90;;;;;;5092886;28;20040;-88
2024/01/09 04:15:09;;;;;;;4.97;2.08;;;-3.10;99.90;;;;;;5075801;28;20546;-88
2024/01/09 04:17:35;;;;;;;7.38;1.83;;;-3.10;99.90;;;;;;5092384;28;20047;-87
2024/01/09 04:20:03;;;;;;;4.90;1.67;;;-3.10;99.90;;;;;;5074730;28;20043;-88
2024/01/09 04:22:28;;;;;;;4.63;1.77;;;-3.20;99.90;;;;;;5075667;28;20044;-88
2024/01/09 04:24:54;;;;;;;5.30;2.15;;;-3.20;99.90;;;;;;5092343;28;20040;-88
2024/01/09 04:27:19;;;;;;;3.17;1.65;;;-3.20;99.90;;;;;;5075698;28;20032;-88
2024/01/09 04:29:45;;;;;;;6.60;2.20;;;-3.20;99.90;;;;;;5093828;28;20040;-88
2024/01/09 04:32:11;;;;;;;4.55;1.85;;;-3.20;99.90;;;;;;5093862;28;20384;-88
2024/01/09 04:34:37;;;;;;;4.53;1.95;;;-3.20;99.90;;;;;;5092781;28;20566;-88
2024/01/09 04:37:03;;;;;;;5.53;1.88;;;-3.20;99.90;;;;;;5076166;28;20032;-88
2024/01/09 04:39:28;;;;;;;4.70;1.77;;;-3.20;99.90;;;;;;5093606;28;20032;-88
2024/01/09 04:41:54;;;;;;;5.68;1.85;;;-3.20;99.90;;;;;;5099627;28;20036;-88
2024/01/09 04:44:19;;;;;;;6.43;2.22;;;-3.20;99.90;;;;;;5104081;28;20032;-87
2024/01/09 04:46:45;;;;;;;4.15;1.98;;;-3.20;99.90;;;;;;5092541;28;20036;-87
2024/01/09 04:49:11;;;;;;;8.73;2.88;;;-3.30;99.90;;;;;;5074888;28;20036;-88
2024/01/09 04:51:36;;;;;;;7.70;2.08;;;-3.30;99.90;;;;;;5089390;28;20043;-88
2024/01/09 04:54:02;;;;;;;4.75;1.60;;;-3.30;99.90;;;;;;5071525;28;20045;-87
2024/01/09 04:56:27;;;;;;;5.50;1.90;;;-3.30;99.90;;;;;;5054846;28;20649;-88
2024/01/09 04:58:53;;;;;;;6.15;2.38;;;-3.30;99.90;;;;;;5071848;28;20033;-88
2024/01/09 05:01:22;;;;;;;3.58;1.45;;;-3.30;99.90;;;;;;5072825;28;20530;-88
2024/01/09 05:03:49;;;;;;;5.07;1.90;;;-3.30;99.90;;;;;;5063196;28;20058;-88
2024/01/09 05:06:16;;;;;;;7.55;2.40;;;-3.30;99.90;;;;;;5070835;28;20112;-87
2024/01/09 05:08:42;;;;;;;3.47;1.95;;;-3.40;99.90;;;;;;5074732;28;20040;-88
2024/01/09 05:11:07;;;;;;;10.52;2.72;;;-3.40;99.90;;;;;;5074809;28;20043;-87
2024/01/09 05:13:33;;;;;;;5.75;2.08;;;-3.40;99.90;;;;;;5091308;28;20063;-88
2024/01/09 05:15:58;;;;;;;5.03;1.98;;;-3.40;99.90;;;;;;5091387;28;20036;-88
2024/01/09 05:18:25;;;;;;;3.45;1.65;;;-3.40;99.90;;;;;;5074352;28;20289;-88
2024/01/09 05:20:51;;;;;;;4.85;1.80;;;-3.50;99.90;;;;;;5074411;28;20036;-88
2024/01/09 05:23:16;;;;;;;6.35;1.88;;;-3.50;99.90;;;;;;5090959;28;20074;-88
2024/01/09 05:25:42;;;;;;;6.45;1.98;;;-3.50;99.90;;;;;;5091068;28;20058;-87
2024/01/09 05:28:07;;;;;;;3.97;1.40;;;-3.50;99.90;;;;;;5072037;28;20487;-87
2024/01/09 05:30:33;;;;;;;3.55;1.48;;;-3.50;99.90;;;;;;5090700;28;20036;-88
2024/01/09 05:32:59;;;;;;;5.90;2.45;;;-3.50;99.90;;;;;;5090063;28;20043;-87
2024/01/09 05:35:24;;;;;;;5.05;1.75;;;-3.60;99.90;;;;;;5090913;28;20044;-87
2024/01/09 05:37:50;;;;;;;4.80;1.67;;;-3.60;99.90;;;;;;5074186;28;20044;-87
2024/01/09 05:40:19;;;;;;;3.85;1.73;;;-3.60;99.90;;;;;;5074173;28;20047;-88
2024/01/09 05:42:45;;;;;;;4.43;1.98;;;-3.60;99.90;;;;;;5090982;28;20082;-88
2024/01/09 05:45:11;;;;;;;7.68;2.17;;;-3.60;99.90;;;;;;5073893;28;20043;-88
2024/01/09 05:47:37;;;;;;;8.82;2.60;;;-3.60;99.90;;;;;;5090654;28;20051;-87
2024/01/09 05:50:04;;;;;;;6.00;2.40;;;-3.70;99.90;;;;;;5091008;28;20036;-87
2024/01/09 05:52:29;;;;;;;6.45;2.45;;;-3.70;99.90;;;;;;5082104;28;20036;-87
2024/01/09 05:54:55;;;;;;;7.68;2.35;;;-3.70;99.90;;;;;;5090493;28;20117;-88
2024/01/09 05:57:21;;;;;;;6.00;1.67;;;-3.70;99.90;;;;;;5090482;28;20032;-88
2024/01/09 05:59:47;;;;;;;4.68;2.00;;;-3.70;99.90;;;;;;5076692;28;20081;-87
2024/01/09 06:02:12;;;;;;;6.60;2.05;;;-3.70;99.90;;;;;;5087118;28;20094;-87
2024/01/09 06:04:38;;;;;;;6.80;2.80;;;-3.70;99.90;;;;;;5073321;28;20032;-88
2024/01/09 06:07:03;;;;;;;7.63;2.88;;;-3.70;99.90;;;;;;5073807;28;20032;-88
2024/01/09 06:09:29;;;;;;;5.85;2.20;;;-3.70;99.90;;;;;;5073370;28;20403;-87
2024/01/09 06:11:55;;;;;;;5.68;2.05;;;-3.80;99.90;;;;;;5073563;28;20089;-87
2024/01/09 06:14:20;;;;;;;6.15;1.83;;;-3.80;99.90;;;;;;5089887;28;20032;-87
2024/01/09 06:16:46;;;;;;;6.57;2.45;;;-3.80;99.90;;;;;;5090362;28;20044;-88
2024/01/09 06:19:12;;;;;;;6.38;2.22;;;-3.80;99.90;;;;;;5090433;28;20030;-88
2024/01/09 06:21:37;;;;;;;6.70;1.85;;;-3.80;99.90;;;;;;5073464;28;20495;-88
2024/01/09 06:24:03;;;;;;;5.85;2.45;;;-3.80;99.90;;;;;;5090157;28;20036;-87
2024/01/09 06:26:29;;;;;;;4.43;1.73;;;-3.80;99.90;;;;;;5090045;28;20495;-87
2024/01/09 06:28:55;;;;;;;5.18;1.90;;;-3.90;99.90;;;;;;5091504;28;20044;-88
2024/01/09 06:31:20;;;;;;;5.43;1.73;;;-3.90;99.90;;;;;;5072830;28;20039;-88
2024/01/09 06:33:46;;;;;;;6.15;2.00;;;-3.90;99.90;;;;;;5077637;28;20040;-87
2024/01/09 06:36:12;;;;;;;7.82;2.80;;;-3.90;99.90;;;;;;5086750;28;20047;-88
2024/01/09 06:38:37;;;;;;;8.10;2.30;;;-3.90;99.90;;;;;;5062779;28;20037;-87
2024/01/09 06:41:03;;;;;;;6.05;1.98;;;-3.90;99.90;;;;;;5076349;28;20040;-88
2024/01/09 06:43:29;;;;;;;7.47;2.20;;;-3.90;99.90;;;;;;5089095;28;20043;-87
2024/01/09 06:45:54;;;;;;;6.40;2.40;;;-3.90;99.90;;;;;;5079569;28;20044;-83
2024/01/09 06:48:20;;;;;;;6.03;2.25;;;-3.90;99.90;;;;;;5083597;28;20040;-87
2024/01/09 06:50:46;;;;;;;7.15;2.55;;;-3.90;99.90;;;;;;5080475;28;20047;-88
2024/01/09 06:53:11;;;;;;;5.68;2.33;;;-3.90;99.90;;;;;;5098266;28;20044;-87
2024/01/09 06:55:37;;;;;;;5.82;2.03;;;-3.90;99.90;;;;;;5064224;28;20040;-87
2024/01/09 06:58:03;;;;;;;5.68;2.08;;;-4.00;99.90;;;;;;5085931;28;20053;-87
2024/01/09 07:00:28;;;;;;;11.18;2.47;;;-3.90;99.90;;;;;;5073543;28;20033;-87
2024/01/09 07:02:54;;;;;;;5.90;2.22;;;-4.00;99.90;;;;;;5066285;28;20562;-87
2024/01/09 07:05:20;;;;;;;7.25;2.13;;;-4.00;99.90;;;;;;5089448;28;20044;-86
2024/01/09 07:07:45;;;;;;;6.53;2.42;;;-3.90;99.90;;;;;;5089826;28;20048;-87
2024/01/09 07:10:11;;;;;;;4.70;1.83;;;-4.00;99.90;;;;;;5072732;28;20040;-88
2024/01/09 07:12:36;;;;;;;6.63;2.47;;;-4.00;99.90;;;;;;5061850;28;20041;-88
2024/01/09 07:15:02;;;;;;;7.60;2.92;;;-4.00;99.90;;;;;;5083494;28;20392;-88
2024/01/09 07:17:28;;;;;;;5.68;2.03;;;-4.00;99.90;;;;;;5074181;28;20028;-88
2024/01/09 07:19:53;;;;;;;7.15;1.92;;;-4.00;99.90;;;;;;5072715;28;20604;-88
2024/01/09 07:22:19;;;;;;;6.18;2.10;;;-4.00;99.90;;;;;;5091155;28;20036;-88
2024/01/09 07:24:45;;;;;;;5.20;1.88;;;-4.00;99.90;;;;;;5090569;28;20104;-88
2024/01/09 07:27:12;;;;;;;4.38;1.88;;;-4.00;99.90;;;;;;5089780;28;20114;-88
2024/01/09 07:29:37;;;;;;;5.43;1.92;;;-4.00;99.90;;;;;;5072507;28;20044;-88
2024/01/09 07:32:03;;;;;;;6.38;2.05;;;-4.00;99.90;;;;;;5064437;28;20040;-87
2024/01/09 07:34:32;;;;;;;7.05;2.40;;;-4.00;99.90;;;;;;5089694;28;20101;-88
2024/01/09 07:36:57;;;;;;;4.95;1.98;;;-4.00;99.90;;;;;;5059737;28;20430;-88
2024/01/09 07:39:23;;;;;;;5.13;2.00;;;-4.10;99.90;;;;;;5078371;28;20131;-88
2024/01/09 07:41:49;;;;;;;7.80;2.38;;;-4.10;99.90;;;;;;5067546;28;20039;-88
2024/01/09 07:44:15;;;;;;;6.75;2.33;;;-4.10;99.90;;;;;;5093639;28;20040;-87
2024/01/09 07:46:42;;;;;;;5.25;1.92;;;-4.10;99.90;;;;;;5089874;28;20773;-88
2024/01/09 07:49:07;;;;;;;5.78;1.23;;;-4.10;99.90;;;;;;5089431;28;20502;-88
2024/01/09 07:51:33;;;;;;;3.42;1.23;;;-4.10;99.90;;;;;;5087802;28;20032;-88
2024/01/09 07:53:59;;;;;;;5.28;1.80;;;-4.10;99.90;;;;;;5051467;28;20483;-88
2024/01/09 07:56:24;;;;;;;4.43;1.52;;;-4.10;99.90;;;;;;5061166;28;20047;-88
2024/01/09 07:58:50;;;;;;;7.90;2.58;;;-4.10;99.90;;;;;;5089632;28;20036;-89
2024/01/09 08:01:17;;;;;;;4.85;1.83;;;-4.10;99.90;;;;;;5054807;28;20471;-88
2024/01/09 08:03:43;;;;;;;7.05;2.03;;;-4.10;99.90;;;;;;5077886;28;20081;-88
2024/01/09 08:06:15;;;;;;;8.18;2.38;;;-4.10;99.90;;;;;;5056668;28;20028;-89
2024/01/09 08:08:44;;;;;;;9.52;2.50;;;-4.10;99.90;;;;;;5083659;28;20111;-88
2024/01/09 08:11:10;;;;;;;8.02;2.25;;;-4.00;99.90;;;;;;5063048;28;20499;-88
2024/01/09 08:13:37;;;;;;;8.60;3.03;;;-4.00;99.90;;;;;;5081797;28;20051;-88
2024/01/09 08:16:03;;;;;;;7.22;2.40;;;-4.00;99.90;;;;;;5086699;28;20495;-87
2024/01/09 08:18:29;;;;;;;6.97;2.47;;;-4.00;99.90;;;;;;5087487;28;20094;-88
2024/01/09 08:20:55;;;;;;;7.72;2.45;;;-4.00;99.90;;;;;;5066107;28;20040;-87
2024/01/09 08:23:21;;;;;;;7.60;2.22;;;-3.90;99.90;;;;;;5068204;28;20037;-88
2024/01/09 08:25:47;;;;;;;6.63;2.25;;;-4.00;99.90;;;;;;5071046;28;20045;-87
2024/01/09 08:28:13;;;;;;;5.57;2.05;;;-3.90;99.90;;;;;;5045603;28;20112;-88
2024/01/09 08:30:38;;;;;;;6.03;2.25;;;-3.90;99.90;;;;;;5051831;28;20041;-88
2024/01/09 08:33:04;;;;;;;7.47;2.30;;;-3.90;99.90;;;;;;5072779;28;20093;-87
2024/01/09 08:35:30;;;;;;;5.72;1.95;;;-3.80;99.90;;;;;;5070965;28;20044;-88
2024/01/09 08:37:56;;;;;;;7.72;2.83;;;-3.80;99.90;;;;;;5072675;28;20434;-88
2024/01/09 08:40:22;;;;;;;4.30;1.55;;;-3.80;99.90;;;;;;5049344;28;20067;-88
2024/01/09 08:42:47;;;;;;;3.00;1.38;;;-3.80;99.90;;;;;;5068275;28;20127;-88
2024/01/09 08:45:14;;;;;;;4.80;2.00;;;-3.80;99.90;;;;;;5051238;28;20492;-87
2024/01/09 08:47:41;;;;;;;9.13;2.92;;;-3.70;99.90;;;;;;5066332;28;20131;-87
2024/01/09 08:50:07;;;;;;;5.70;2.00;;;-3.70;99.90;;;;;;5087876;28;20489;-87
2024/01/09 08:52:34;;;;;;;5.63;2.38;;;-3.70;99.90;;;;;;5061099;28;20040;-88
2024/01/09 08:55:00;;;;;;;5.00;1.75;;;-3.60;99.90;;;;;;5072745;28;20040;-88
2024/01/09 08:57:25;;;;;;;6.65;2.38;;;-3.60;99.90;;;;;;5071053;28;20131;-88
2024/01/09 08:59:51;;;;;;;6.00;2.05;;;-3.60;99.90;;;;;;5054744;28;20040;-88
2024/01/09 09:02:17;;;;;;;8.25;1.80;;;-3.50;99.90;;;;;;5082284;28;20043;-87
2024/01/09 09:04:42;;;;;;;5.30;2.00;;;-3.50;99.90;;;;;;5085719;28;20036;-87
2024/01/09 09:07:08;;;;;;;7.45;2.22;;;-3.50;99.90;;;;;;5058070;28;20514;-88
2024/01/09 09:09:35;;;;;;;4.03;1.52;;;-3.40;99.90;;;;;;5077292;28;20036;-88
2024/01/09 09:12:01;;;;;;;5.43;2.17;;;-3.40;99.90;;;;;;5078829;28;20039;-87
2024/01/09 09:14:26;;;;;;;4.28;1.63;;;-3.40;99.90;;;;;;5078446;28;20115;-87
2024/01/09 09:16:52;;;;;;;6.70;2.30;;;-3.40;99.90;;;;;;5091317;28;20115;-88
2024/01/09 09:19:21;;;;;;;7.30;2.63;;;-3.30;99.90;;;;;;5090974;28;20122;-87
2024/01/09 09:21:46;;;;;;;5.70;2.25;;;-3.30;99.90;;;;;;5067862;28;20119;-87
2024/01/09 09:24:12;;;;;;;6.00;2.50;;;-3.20;99.90;;;;;;5092180;28;20126;-88
2024/01/09 09:26:38;;;;;;;6.35;2.13;;;-3.20;99.90;;;;;;5086908;28;20036;-88
2024/01/09 09:29:03;;;;;;;7.85;2.70;;;-3.10;99.90;;;;;;5070855;28;20055;-87
2024/01/09 09:31:29;;;;;;;6.78;2.35;;;-3.00;99.90;;;;;;5064159;28;20491;-87
2024/01/09 09:33:58;;;;;;;4.60;1.77;;;-3.00;99.70;;;;;;5058185;28;20046;-87
2024/01/09 09:36:24;;;;;;;5.00;1.50;;;-2.90;99.50;;;;;;5088082;28;20039;-87
2024/01/09 09:38:53;;;;;;;4.72;1.85;;;-2.90;98.60;;;;;;5090661;28;20040;-87
2024/01/09 09:41:20;;;;;;;7.70;1.95;;;-2.80;98.30;;;;;;5071940;28;20059;-87
2024/01/09 09:43:53;;;;;;;5.90;1.95;;;-2.70;97.70;;;;;;5069963;28;20056;-88
2024/01/09 09:46:31;;;;;;;;;;;-2.70;96.50;;;;;;5045029;28;20041;-87
2024/01/09 09:48:58;;;;;;;8.23;2.33;;;-2.60;94.80;;;;;;5078330;28;19923;-88
2024/01/09 09:51:25;;;;;;;4.78;1.45;;;-2.60;95.30;;;;;;5071831;28;20090;-87
2024/01/09 09:53:53;;;;;;;5.15;2.13;;;-2.50;93.70;;;;;;5054799;28;20064;-88
2024/01/09 09:56:19;;;;;;;7.13;2.70;;;-2.50;93.40;;;;;;5072178;28;20040;-88
2024/01/09 09:58:45;;;;;;;5.25;2.10;;;-2.40;93.80;;;;;;5060361;28;20517;-87
2024/01/09 10:01:12;;;;;;;7.00;1.85;;;-2.40;94.30;;;;;;5071988;28;20134;-88
2024/01/09 10:03:49;;;;;;;4.93;1.73;;;-2.30;93.70;;;;;;5067549;28;20075;-88
2024/01/09 10:06:17;;;;;;;6.20;1.90;;;-2.30;93.10;;;;;;5052090;28;20070;-88
2024/01/09 10:08:46;;;;;;;5.18;2.08;;;-2.20;92.20;;;;;;5050103;28;20089;-88
2024/01/09 10:11:12;;;;;;;6.18;1.90;;;-2.10;92.10;;;;;;5066525;28;20037;-88
2024/01/09 10:13:39;;;;;;;4.05;1.55;;;-2.00;92.00;;;;;;5078801;28;20135;-88
2024/01/09 10:16:05;;;;;;;5.55;1.98;;;-2.00;91.70;;;;;;5090938;28;20051;-88
2024/01/09 10:18:31;;;;;;;5.13;2.03;;;-1.90;92.00;;;;;;5055310;28;20128;-87
2024/01/09 10:20:59;;;;;;;5.40;2.00;;;-1.70;92.70;;;;;;5054234;28;20044;-87
2024/01/09 10:23:25;;;;;;;7.10;2.45;;;-1.70;92.30;;;;;;5077954;28;20068;-88
2024/01/09 10:25:52;;;;;;;6.88;1.70;;;-1.60;91.00;;;;;;5088345;28;20040;-87
2024/01/09 10:28:17;;;;;;;8.77;2.53;;;-1.50;90.60;;;;;;5080690;28;20074;-88
2024/01/09 10:30:43;;;;;;;6.28;2.10;;;-1.40;90.90;;;;;;5078995;28;20113;-88
2024/01/09 10:33:11;;;;;;;5.68;2.10;;;-1.30;90.70;;;;;;5065989;28;20166;-88
2024/01/09 10:35:37;;;;;;;7.63;2.38;;;-1.20;90.50;;;;;;5080404;28;20044;-87
2024/01/09 10:38:02;;;;;;;6.32;2.03;;;-1.10;90.70;;;;;;5075781;28;20411;-87
2024/01/09 10:40:28;;;;;;;7.00;2.60;;;-0.90;89.40;;;;;;5059211;28;20036;-87
2024/01/09 10:42:54;;;;;;;7.13;2.28;;;-0.80;88.00;;;;;;5079079;28;20167;-88
2024/01/09 10:45:23;;;;;;;5.25;1.45;;;-0.70;87.60;;;;;;5085628;28;20610;-87
2024/01/09 10:47:53;;;;;;;5.82;1.80;;;-0.60;83.80;;;;;;5087513;28;20044;-87
2024/01/09 10:50:20;;;;;;;4.78;1.63;;;-0.50;82.50;;;;;;5062825;28;20036;-87
2024/01/09 10:52:48;;;;;;;6.03;2.22;;;-0.40;83.50;;;;;;5074470;28;20131;-88
2024/01/09 10:55:15;;;;;;;5.80;2.13;;;-0.30;85.00;;;;;;5076401;28;20047;-88
2024/01/09 10:57:42;;;;;;;4.65;1.98;;;-0.20;83.10;;;;;;5089354;28;20043;-87
2024/01/09 11:00:11;;;;;;;7.82;2.28;;;-0.10;82.50;;;;;;5059176;28;20550;-87
2024/01/09 11:02:37;;;;;;;5.43;1.85;;;0.10;83.80;;;;;;5088420;28;20051;-87
2024/01/09 11:05:07;;;;;;;7.25;2.17;;;0.20;82.60;;;;;;5067097;28;20033;-88
2024/01/09 11:07:33;;;;;;;5.28;2.40;;;0.30;80.70;;;;;;5069152;28;20078;-88
2024/01/09 11:10:00;;;;;;;12.70;2.10;;;0.50;80.60;;;;;;5082121;28;20036;-85
2024/01/09 11:12:36;;;;;;;6.78;1.90;;;0.60;81.20;;;;;;5059958;28;20097;-85
2024/01/09 11:15:25;;;;;;;5.93;2.00;;;0.80;78.90;;;;;;5083615;28;20707;-82
2024/01/09 11:18:00;;;;;;;5.88;2.08;;;0.90;79.10;;;;;;5075932;28;20074;-85
2024/01/09 11:20:27;;;;;;;6.25;1.85;;;0.90;78.10;;;;;;5068695;28;20047;-85
2024/01/09 11:22:52;;;;;;;4.88;1.40;;;1.00;77.20;;;;;;5055400;28;20033;-85
2024/01/09 11:25:24;;;;;;;7.03;1.98;;;1.10;75.90;;;;;;5061488;28;20102;-85
2024/01/09 11:27:53;;;;;;;7.65;1.92;;;1.20;76.50;;;;;;5064483;28;20043;-84
2024/01/09 11:30:29;;;;;;;3.80;1.48;;;1.30;76.40;;;;;;5070584;28;20051;-87
2024/01/09 11:33:18;;;;;;;3.40;1.42;;;1.30;75.00;;;;;;5051577;28;20105;-86
2024/01/09 11:35:44;;;;;;;4.95;1.55;;;1.50;76.80;;;;;;5069376;28;20036;-86
2024/01/09 11:38:10;;;;;;;3.88;1.33;;;1.70;74.20;;;;;;5064432;28;20036;-87
2024/01/09 11:40:36;;;;;;;5.32;1.60;;;1.80;74.60;;;;;;5051792;28;20036;-87
2024/01/09 11:43:02;;;;;;;2.55;1.25;;;1.90;74.00;;;;;;5053686;28;20036;-86
2024/01/09 11:45:27;;;;;;;6.63;2.28;;;2.10;73.70;;;;;;5070643;28;20036;-86
2024/01/09 11:47:53;;;;;;;7.55;2.05;;;2.20;72.80;;;;;;5052384;28;20033;-86
2024/01/09 11:50:19;;;;;;;7.03;2.03;;;2.40;71.90;;;;;;5070521;28;20747;-86
2024/01/09 11:52:47;;;;;;;6.22;2.00;;;2.50;72.50;;;;;;5069994;28;20039;-86
2024/01/09 11:55:14;;;;;;;5.65;1.75;;;2.60;72.30;;;;;;5072804;28;20037;-87
2024/01/09 11:57:41;;;;;;;6.85;2.38;;;2.70;71.30;;;;;;5072784;28;20095;-87
2024/01/09 12:00:09;;;;;;;6.05;1.92;;;3.00;71.50;;;;;;5050417;28;20656;-87
2024/01/09 12:02:38;;;;;;;3.78;1.50;;;3.20;70.30;;;;;;5067835;28;20039;-87
2024/01/09 12:05:05;;;;;;;4.45;1.55;;;3.30;69.70;;;;;;5075084;28;20528;-87
2024/01/09 12:07:39;;;;;;;4.40;1.30;;;3.80;70.50;;;;;;5079129;28;20036;-86
2024/01/09 12:10:06;;;;;;;4.57;1.63;;;4.30;68.60;;;;;;5066884;28;20036;-87
2024/01/09 12:12:32;;;;;;;6.38;1.80;;;5.40;68.80;;;;;;5058948;28;20037;-87
2024/01/09 12:14:59;;;;;;;2.65;1.10;;;6.70;68.30;;;;;;5080502;28;20033;-87
2024/01/09 12:17:33;;;;;;;5.95;1.65;;;7.70;66.00;;;;;;5072692;28;20495;-88
2024/01/09 12:20:00;;;;;;;4.50;1.58;;;8.50;63.60;;;;;;5060476;28;20036;-87
2024/01/09 12:22:26;;;;;;;6.10;1.52;;;9.10;61.80;;;;;;5074543;28;20041;-87
2024/01/09 12:24:54;;;;;;;3.28;1.70;;;9.60;60.30;;;;;;5074382;28;20040;-87
2024/01/09 12:27:21;;;;;;;4.45;1.55;;;9.80;59.70;;;;;;5091537;28;20067;-88
2024/01/09 12:29:47;;;;;;;5.40;1.70;;;10.20;59.00;;;;;;5091923;28;20039;-88
2024/01/09 12:32:15;;;;;;;6.40;2.22;;;11.20;60.80;;;;;;5075155;28;20040;-88
2024/01/09 12:34:40;;;;;;;6.00;1.63;;;12.50;58.80;;;;;;5057608;28;20036;-88
2024/01/09 12:37:09;;;;;;;6.25;1.83;;;13.70;57.70;;;;;;5084708;28;20051;-88
2024/01/09 12:39:35;;;;;;;6.32;1.52;;;14.30;56.10;;;;;;5081383;28;20076;-88
2024/01/09 12:42:12;;;;;;;6.93;1.80;;;15.00;55.80;;;;;;5092498;28;20050;-88
2024/01/09 12:44:42;;;;;;;6.82;2.92;;;15.60;54.50;;;;;;5074633;28;20052;-88